createdAt,value
2018-04-02T00:00:36.493Z,6.60
2018-04-02T00:03:04.104Z,6.60
2018-04-02T00:05:31.714Z,6.70
2018-04-02T00:07:59.292Z,6.70
2018-04-02T00:10:27.703Z,6.80
2018-04-02T00:12:55.254Z,6.70
2018-04-02T00:15:22.822Z,6.70
2018-04-02T00:17:50.400Z,6.70
2018-04-02T00:20:18.049Z,6.60
2018-04-02T00:22:45.632Z,6.60
2018-04-02T00:25:13.275Z,6.50
2018-04-02T00:27:40.895Z,6.50
2018-04-02T00:30:08.490Z,6.60
2018-04-02T00:32:36.095Z,6.60
2018-04-02T00:35:03.683Z,6.60
2018-04-02T00:37:32.068Z,6.50
2018-04-02T00:40:00.431Z,6.50
2018-04-02T00:42:28.099Z,6.50
2018-04-02T00:44:55.617Z,6.30
2018-04-02T00:47:23.187Z,6.10
2018-04-02T00:49:50.730Z,6.00
2018-04-02T00:52:18.319Z,6.10
2018-04-02T00:54:45.901Z,6.10
2018-04-02T00:57:14.267Z,6.00
2018-04-02T00:59:41.818Z,6.00
2018-04-02T01:02:09.386Z,6.10
2018-04-02T01:04:36.934Z,6.20
2018-04-02T01:07:04.518Z,6.20
2018-04-02T01:09:32.058Z,6.30
2018-04-02T01:11:59.634Z,6.40
2018-04-02T01:14:27.177Z,6.40
2018-04-02T01:16:54.718Z,6.40
2018-04-02T01:19:22.288Z,6.30
2018-04-02T01:21:50.775Z,6.30
2018-04-02T01:24:18.446Z,6.30
2018-04-02T01:26:46.027Z,6.30
2018-04-02T01:29:14.410Z,6.00
2018-04-02T01:31:42.769Z,6.10
2018-04-02T01:34:10.356Z,6.10
2018-04-02T01:36:37.894Z,6.10
2018-04-02T01:39:05.509Z,6.10
2018-04-02T01:41:33.096Z,6.00
2018-04-02T01:44:00.752Z,5.90
2018-04-02T01:46:28.338Z,6.00
2018-04-02T01:48:55.931Z,6.00
2018-04-02T01:51:23.520Z,6.00
2018-04-02T01:53:51.164Z,6.00
2018-04-02T01:56:18.744Z,6.00
2018-04-02T01:58:47.158Z,5.90
2018-04-02T02:01:14.760Z,5.90
2018-04-02T02:03:42.346Z,5.90
2018-04-02T02:06:09.886Z,6.00
2018-04-02T02:08:37.427Z,6.00
2018-04-02T02:11:05.832Z,5.90
2018-04-02T02:13:33.434Z,5.90
2018-04-02T02:16:01.072Z,5.90
2018-04-02T02:18:28.658Z,5.80
2018-04-02T02:20:56.280Z,5.70
2018-04-02T02:23:23.880Z,5.60
2018-04-02T02:25:51.538Z,5.60
2018-04-02T02:28:19.177Z,5.60
2018-04-02T02:30:46.832Z,5.60
2018-04-02T02:33:14.443Z,5.60
2018-04-02T02:35:42.826Z,5.60
2018-04-02T02:38:10.512Z,5.60
2018-04-02T02:40:38.130Z,5.50
2018-04-02T02:43:05.714Z,5.50
2018-04-02T02:45:34.158Z,5.50
2018-04-02T02:48:01.732Z,5.50
2018-04-02T02:50:29.350Z,5.50
2018-04-02T02:52:56.963Z,5.50
2018-04-02T02:55:24.595Z,5.50
2018-04-02T02:57:52.201Z,5.50
2018-04-02T03:00:19.838Z,5.40
2018-04-02T03:02:47.472Z,5.40
2018-04-02T03:05:15.063Z,5.30
2018-04-02T03:07:42.683Z,5.20
2018-04-02T03:10:10.307Z,5.20
2018-04-02T03:12:37.941Z,5.20
2018-04-02T03:15:05.534Z,4.80
2018-04-02T03:17:33.143Z,4.70
2018-04-02T03:20:00.731Z,4.70
2018-04-02T03:22:28.395Z,4.80
2018-04-02T03:24:55.990Z,4.70
2018-04-02T03:27:23.561Z,4.60
2018-04-02T03:29:51.109Z,4.50
2018-04-02T03:32:19.443Z,4.60
2018-04-02T03:34:46.985Z,4.60
2018-04-02T03:37:14.553Z,4.60
2018-04-02T03:39:42.092Z,4.70
2018-04-02T03:42:09.623Z,4.70
2018-04-02T03:44:37.970Z,4.80
2018-04-02T03:47:05.517Z,4.70
2018-04-02T03:49:33.082Z,4.70
2018-04-02T03:52:00.622Z,4.70
2018-04-02T03:54:28.194Z,4.70
2018-04-02T03:56:55.739Z,4.70
2018-04-02T03:59:23.318Z,4.60
2018-04-02T04:01:50.867Z,4.50
2018-04-02T04:04:18.436Z,4.50
2018-04-02T04:06:45.987Z,4.50
2018-04-02T04:09:13.549Z,4.40
2018-04-02T04:11:41.082Z,4.30
2018-04-02T04:14:08.663Z,4.10
2018-04-02T04:16:36.978Z,4.20
2018-04-02T04:19:04.546Z,4.20
2018-04-02T04:21:32.856Z,4.40
2018-04-02T04:24:00.440Z,4.30
2018-04-02T04:26:27.994Z,4.40
2018-04-02T04:28:55.533Z,4.40
2018-04-02T04:31:23.131Z,4.30
2018-04-02T04:33:50.768Z,4.30
2018-04-02T04:36:18.421Z,4.20
2018-04-02T04:38:46.002Z,4.30
2018-04-02T04:41:13.577Z,4.40
2018-04-02T04:43:41.136Z,4.40
2018-04-02T04:46:08.714Z,4.50
2018-04-02T04:48:36.267Z,4.60
2018-04-02T04:51:03.859Z,4.60
2018-04-02T04:53:31.435Z,4.70
2018-04-02T04:55:59.009Z,4.70
2018-04-02T04:58:26.571Z,4.70
2018-04-02T05:00:54.139Z,4.80
2018-04-02T05:03:21.680Z,4.80
2018-04-02T05:05:49.242Z,4.70
2018-04-02T05:08:16.797Z,4.80
2018-04-02T05:10:44.361Z,4.80
2018-04-02T05:13:11.924Z,4.90
2018-04-02T05:15:39.577Z,4.80
2018-04-02T05:18:07.117Z,4.90
2018-04-02T05:20:35.454Z,4.90
2018-04-02T05:23:03.056Z,4.90
2018-04-02T05:25:30.616Z,5.00
2018-04-02T05:27:58.935Z,5.00
2018-04-02T05:30:26.520Z,5.00
2018-04-02T05:32:54.076Z,5.00
2018-04-02T05:35:21.630Z,5.00
2018-04-02T05:37:49.202Z,5.10
2018-04-02T05:40:16.744Z,5.10
2018-04-02T05:42:44.302Z,5.10
2018-04-02T05:45:11.872Z,5.10
2018-04-02T05:47:39.453Z,5.10
2018-04-02T05:50:06.989Z,5.10
2018-04-02T05:52:34.550Z,5.20
2018-04-02T05:55:02.118Z,5.20
2018-04-02T05:57:29.686Z,5.20
2018-04-02T05:59:57.222Z,5.20
2018-04-02T06:02:25.559Z,5.30
2018-04-02T06:04:53.870Z,5.40
2018-04-02T06:07:21.474Z,5.40
2018-04-02T06:09:49.042Z,5.40
2018-04-02T06:12:17.417Z,5.50
2018-04-02T06:14:45.020Z,5.50
2018-04-02T06:17:12.651Z,5.50
2018-04-02T06:19:41.010Z,5.60
2018-04-02T06:22:08.667Z,5.60
2018-04-02T06:24:36.266Z,5.60
2018-04-02T06:27:03.889Z,5.60
2018-04-02T06:29:31.470Z,5.60
2018-04-02T06:31:59.908Z,5.70
2018-04-02T06:34:27.555Z,5.70
2018-04-02T06:36:55.225Z,5.70
2018-04-02T06:39:22.799Z,5.70
2018-04-02T06:41:50.434Z,5.70
2018-04-02T06:44:18.043Z,5.70
2018-04-02T06:46:45.659Z,5.70
2018-04-02T06:49:13.268Z,5.80
2018-04-02T06:51:40.888Z,5.90
2018-04-02T06:54:09.298Z,6.00
2018-04-02T06:56:36.888Z,6.00
2018-04-02T06:59:05.269Z,6.10
2018-04-02T07:01:33.634Z,6.20
2018-04-02T07:04:01.267Z,6.20
2018-04-02T07:06:29.735Z,6.30
2018-04-02T07:08:58.131Z,6.50
2018-04-02T07:11:25.726Z,6.40
2018-04-02T07:13:54.095Z,6.50
2018-04-02T07:16:21.706Z,6.40
2018-04-02T07:18:49.315Z,6.40
2018-04-02T07:21:17.690Z,6.50
2018-04-02T07:23:45.346Z,6.40
2018-04-02T07:26:12.963Z,6.40
2018-04-02T07:28:40.545Z,6.40
2018-04-02T07:31:08.134Z,6.30
2018-04-02T07:33:35.732Z,6.40
2018-04-02T07:36:03.344Z,6.40
2018-04-02T07:38:30.946Z,6.50
2018-04-02T07:40:58.563Z,6.50
2018-04-02T07:43:26.191Z,6.50
2018-04-02T07:45:53.790Z,6.60
2018-04-02T07:48:21.413Z,6.80
2018-04-02T07:50:49.035Z,6.80
2018-04-02T07:53:16.638Z,6.90
2018-04-02T07:55:44.243Z,7.10
2018-04-02T07:58:11.864Z,7.30
2018-04-02T08:00:39.457Z,7.50
2018-04-02T08:03:07.065Z,7.60
2018-04-02T08:05:34.723Z,7.70
2018-04-02T08:08:02.350Z,7.90
2018-04-02T08:10:29.920Z,8.00
2018-04-02T08:12:57.527Z,8.20
2018-04-02T08:15:25.131Z,8.30
2018-04-02T08:17:52.856Z,8.40
2018-04-02T08:20:20.408Z,8.50
2018-04-02T08:22:47.983Z,8.60
2018-04-02T08:25:15.543Z,8.70
2018-04-02T08:27:43.117Z,8.90
2018-04-02T08:30:10.646Z,9.00
2018-04-02T08:32:38.214Z,9.00
2018-04-02T08:35:05.810Z,9.10
2018-04-02T08:37:33.369Z,9.30
2018-04-02T08:40:00.912Z,9.40
2018-04-02T08:42:28.479Z,9.40
2018-04-02T08:44:56.010Z,9.40
2018-04-02T08:47:23.574Z,9.50
2018-04-02T08:49:51.111Z,9.70
2018-04-02T08:52:18.727Z,9.80
2018-04-02T08:54:46.261Z,9.80
2018-04-02T08:57:13.798Z,9.90
2018-04-02T08:59:41.365Z,9.90
2018-04-02T09:02:08.906Z,10.00
2018-04-02T09:04:36.478Z,10.10
2018-04-02T09:07:04.054Z,10.20
2018-04-02T09:09:31.626Z,10.20
2018-04-02T09:11:59.166Z,10.30
2018-04-02T09:14:26.760Z,10.30
2018-04-02T09:16:54.314Z,10.40
2018-04-02T09:19:21.896Z,10.40
2018-04-02T09:21:49.510Z,10.40
2018-04-02T09:24:17.110Z,10.40
2018-04-02T09:26:44.702Z,10.50
2018-04-02T09:29:12.422Z,10.50
2018-04-02T09:31:39.998Z,10.60
2018-04-02T09:34:07.604Z,10.70
2018-04-02T09:36:35.150Z,10.60
2018-04-02T09:39:04.407Z,10.60
2018-04-02T09:41:32.026Z,10.60
2018-04-02T09:43:59.647Z,10.70
2018-04-02T09:46:27.238Z,10.90
2018-04-02T09:48:54.880Z,11.10
2018-04-02T09:51:23.304Z,11.30
2018-04-02T09:53:50.918Z,11.30
2018-04-02T09:56:18.539Z,11.40
2018-04-02T09:58:46.124Z,11.50
2018-04-02T10:01:13.750Z,11.50
2018-04-02T10:03:56.266Z,11.60
2018-04-02T10:06:23.875Z,11.60
2018-04-02T10:08:51.463Z,11.70
2018-04-02T10:11:19.078Z,11.60
2018-04-02T10:13:46.649Z,11.70
2018-04-02T10:16:14.214Z,11.80
2018-04-02T10:18:41.746Z,11.90
2018-04-02T10:21:09.333Z,12.10
2018-04-02T10:23:36.872Z,12.30
2018-04-02T10:26:04.443Z,12.40
2018-04-02T10:28:31.982Z,12.50
2018-04-02T10:30:59.521Z,12.50
2018-04-02T10:33:27.093Z,12.60
2018-04-02T10:35:54.634Z,12.70
2018-04-02T10:38:22.218Z,12.70
2018-04-02T10:40:49.755Z,12.60
2018-04-02T10:43:17.340Z,12.60
2018-04-02T10:45:45.678Z,12.50
2018-04-02T10:48:13.244Z,12.50
2018-04-02T10:50:40.786Z,12.50
2018-04-02T10:53:09.107Z,12.70
2018-04-02T10:55:36.640Z,12.70
2018-04-02T10:58:04.223Z,12.70
2018-04-02T11:00:31.759Z,12.80
2018-04-02T11:02:59.329Z,12.90
2018-04-02T11:05:26.866Z,13.00
2018-04-02T11:07:55.214Z,13.30
2018-04-02T11:10:22.747Z,13.30
2018-04-02T11:12:50.342Z,13.70
2018-04-02T11:15:17.887Z,13.80
2018-04-02T11:17:45.427Z,13.60
2018-04-02T11:20:13.007Z,13.50
2018-04-02T11:22:40.546Z,13.20
2018-04-02T11:25:08.107Z,13.10
2018-04-02T11:27:35.653Z,13.10
2018-04-02T11:30:03.230Z,13.00
2018-04-02T11:32:30.784Z,13.00
2018-04-02T11:34:58.350Z,13.00
2018-04-02T11:37:25.904Z,13.10
2018-04-02T11:39:53.474Z,13.10
2018-04-02T11:42:21.006Z,13.20
2018-04-02T11:44:48.596Z,13.20
2018-04-02T11:47:16.190Z,13.30
2018-04-02T11:49:44.637Z,13.50
2018-04-02T11:52:12.270Z,13.50
2018-04-02T11:54:39.922Z,13.60
2018-04-02T11:57:07.555Z,13.70
2018-04-02T11:59:35.154Z,13.70
2018-04-02T12:02:02.793Z,13.60
2018-04-02T12:04:31.130Z,13.70
2018-04-02T12:06:58.779Z,13.70
2018-04-02T12:09:26.373Z,13.70
2018-04-02T12:11:54.023Z,13.80
2018-04-02T12:14:21.660Z,13.80
2018-04-02T12:16:49.269Z,13.80
2018-04-02T12:19:17.628Z,14.00
2018-04-02T12:21:45.273Z,14.00
2018-04-02T12:24:12.870Z,14.00
2018-04-02T12:26:40.491Z,14.00
2018-04-02T12:29:08.075Z,14.00
2018-04-02T12:31:35.698Z,14.10
2018-04-02T12:34:03.366Z,14.20
2018-04-02T12:36:30.992Z,14.20
2018-04-02T12:38:59.384Z,14.20
2018-04-02T12:41:26.991Z,14.20
2018-04-02T12:43:54.575Z,14.10
2018-04-02T12:46:22.966Z,13.90
2018-04-02T12:48:51.390Z,13.90
2018-04-02T12:51:19.004Z,13.90
2018-04-02T12:53:47.384Z,13.80
2018-04-02T12:56:15.736Z,13.90
2018-04-02T12:58:43.366Z,13.80
2018-04-02T13:01:10.974Z,13.90
2018-04-02T13:03:39.421Z,13.90
2018-04-02T13:06:07.014Z,13.80
2018-04-02T13:08:34.627Z,13.80
2018-04-02T13:11:02.247Z,13.90
2018-04-02T13:13:30.670Z,14.00
2018-04-02T13:15:58.274Z,14.00
2018-04-02T13:18:25.834Z,14.10
2018-04-02T13:20:53.361Z,14.10
2018-04-02T13:23:20.946Z,14.20
2018-04-02T13:25:48.488Z,14.30
2018-04-02T13:28:16.023Z,14.40
2018-04-02T13:30:43.616Z,14.30
2018-04-02T13:33:11.158Z,14.40
2018-04-02T13:35:38.722Z,14.50
2018-04-02T13:38:06.266Z,14.70
2018-04-02T13:40:33.843Z,14.80
2018-04-02T13:43:01.387Z,14.80
2018-04-02T13:45:28.955Z,14.90
2018-04-02T13:47:56.490Z,15.00
2018-04-02T13:50:24.058Z,15.00
2018-04-02T13:52:51.596Z,15.00
2018-04-02T13:55:19.943Z,15.00
2018-04-02T13:57:47.513Z,14.90
2018-04-02T14:00:15.088Z,15.00
2018-04-02T14:02:43.402Z,14.90
2018-04-02T14:05:10.996Z,14.90
2018-04-02T14:07:38.538Z,14.90
2018-04-02T14:10:06.096Z,14.90
2018-04-02T14:12:33.683Z,14.80
2018-04-02T14:15:01.243Z,14.80
2018-04-02T14:17:28.842Z,14.80
2018-04-02T14:19:56.380Z,14.80
2018-04-02T14:22:23.959Z,14.80
2018-04-02T14:24:51.495Z,14.80
2018-04-02T14:27:19.062Z,14.90
2018-04-02T14:29:46.660Z,14.90
2018-04-02T14:32:14.366Z,14.90
2018-04-02T14:34:41.971Z,14.80
2018-04-02T14:37:09.606Z,14.90
2018-04-02T14:39:38.003Z,15.00
2018-04-02T14:42:06.338Z,15.00
2018-04-02T14:44:33.926Z,15.00
2018-04-02T14:47:01.534Z,15.10
2018-04-02T14:49:29.086Z,15.10
2018-04-02T14:51:56.689Z,15.00
2018-04-02T14:54:24.248Z,15.00
2018-04-02T14:56:51.786Z,15.00
2018-04-02T14:59:19.357Z,15.10
2018-04-02T15:01:46.896Z,15.20
2018-04-02T15:04:14.508Z,15.30
2018-04-02T15:06:42.042Z,15.50
2018-04-02T15:09:09.606Z,15.60
2018-04-02T15:11:37.143Z,15.80
2018-04-02T15:14:04.706Z,15.90
2018-04-02T15:16:32.245Z,15.80
2018-04-02T15:18:59.819Z,15.80
2018-04-02T15:21:27.355Z,15.80
2018-04-02T15:23:54.926Z,15.80
2018-04-02T15:26:22.462Z,15.70
2018-04-02T15:28:50.790Z,15.50
2018-04-02T15:31:18.330Z,15.50
2018-04-02T15:33:45.905Z,15.40
2018-04-02T15:36:13.462Z,15.40
2018-04-02T15:38:41.060Z,15.30
2018-04-02T15:41:08.610Z,15.30
2018-04-02T15:43:36.154Z,15.30
2018-04-02T15:46:03.722Z,15.20
2018-04-02T15:48:31.257Z,15.30
2018-04-02T15:50:58.875Z,15.40
2018-04-02T15:53:26.380Z,15.50
2018-04-02T15:55:53.942Z,15.70
2018-04-02T15:58:22.266Z,15.80
2018-04-02T16:00:50.646Z,15.70
2018-04-02T16:03:18.952Z,15.60
2018-04-02T16:05:46.532Z,15.60
2018-04-02T16:08:14.069Z,15.60
2018-04-02T16:10:41.638Z,15.50
2018-04-02T16:13:09.184Z,15.40
2018-04-02T16:15:36.763Z,15.40
2018-04-02T16:18:04.311Z,15.30
2018-04-02T16:20:31.879Z,15.40
2018-04-02T16:22:59.426Z,15.30
2018-04-02T16:25:27.022Z,15.30
2018-04-02T16:27:55.325Z,15.20
2018-04-02T16:30:22.906Z,15.20
2018-04-02T16:32:51.218Z,14.90
2018-04-02T16:35:18.750Z,14.90
2018-04-02T16:37:47.092Z,14.70
2018-04-02T16:40:14.648Z,14.70
2018-04-02T16:42:42.211Z,14.70
2018-04-02T16:45:09.750Z,14.60
2018-04-02T16:47:38.110Z,14.60
2018-04-02T16:50:05.689Z,14.50
2018-04-02T16:52:33.287Z,14.50
2018-04-02T16:55:00.833Z,14.50
2018-04-02T16:57:28.413Z,14.40
2018-04-02T16:59:56.733Z,14.30
2018-04-02T17:02:24.310Z,14.30
2018-04-02T17:04:52.612Z,14.20
2018-04-02T17:07:20.198Z,14.20
2018-04-02T17:09:48.537Z,14.20
2018-04-02T17:12:16.108Z,14.20
2018-04-02T17:14:43.675Z,14.20
2018-04-02T17:17:11.258Z,14.20
2018-04-02T17:19:39.613Z,14.10
2018-04-02T17:22:07.153Z,14.00
2018-04-02T17:24:34.728Z,14.10
2018-04-02T17:27:02.274Z,14.00
2018-04-02T17:29:29.841Z,14.00
2018-04-02T17:31:57.382Z,13.90
2018-04-02T17:34:24.956Z,13.90
2018-04-02T17:36:52.504Z,14.10
2018-04-02T17:39:20.154Z,14.40
2018-04-02T17:41:47.749Z,14.30
2018-04-02T17:44:15.376Z,14.20
2018-04-02T17:46:42.979Z,14.10
2018-04-02T17:49:10.630Z,14.00
2018-04-02T17:51:38.201Z,13.90
2018-04-02T17:54:05.791Z,13.80
2018-04-02T17:56:33.413Z,13.80
2018-04-02T17:59:01.050Z,13.80
2018-04-02T18:01:28.669Z,13.70
2018-04-02T18:03:56.260Z,13.70
2018-04-02T18:06:23.840Z,13.70
2018-04-02T18:08:51.386Z,13.60
2018-04-02T18:11:18.955Z,13.60
2018-04-02T18:13:46.492Z,13.60
2018-04-02T18:16:14.076Z,13.60
2018-04-02T18:18:41.616Z,13.60
2018-04-02T18:21:09.195Z,13.50
2018-04-02T18:23:36.760Z,13.40
2018-04-02T18:26:05.124Z,13.30
2018-04-02T18:28:32.665Z,13.30
2018-04-02T18:31:00.215Z,13.30
2018-04-02T18:33:28.555Z,13.20
2018-04-02T18:35:56.138Z,13.20
2018-04-02T18:38:24.489Z,13.20
2018-04-02T18:40:52.034Z,13.10
2018-04-02T18:43:19.603Z,13.10
2018-04-02T18:45:47.154Z,13.00
2018-04-02T18:48:14.714Z,13.10
2018-04-02T18:50:42.266Z,13.00
2018-04-02T18:53:09.833Z,13.00
2018-04-02T18:55:37.374Z,13.00
2018-04-02T18:58:04.947Z,13.00
2018-04-02T19:00:32.490Z,13.00
2018-04-02T19:03:00.067Z,13.00
2018-04-02T19:05:27.601Z,13.10
2018-04-02T19:07:55.150Z,13.10
2018-04-02T19:10:22.710Z,13.00
2018-04-02T19:12:51.025Z,12.80
2018-04-02T19:15:18.631Z,12.80
2018-04-02T19:17:46.173Z,12.70
2018-04-02T19:20:14.012Z,12.60
2018-04-02T19:22:41.690Z,12.60
2018-04-02T19:25:09.333Z,12.50
2018-04-02T19:27:36.936Z,12.50
2018-04-02T19:30:04.558Z,12.50
2018-04-02T19:32:32.160Z,12.50
2018-04-02T19:34:59.788Z,12.50
2018-04-02T19:37:27.377Z,12.50
2018-04-02T19:39:55.055Z,12.50
2018-04-02T19:42:23.413Z,12.30
2018-04-02T19:44:51.049Z,12.30
2018-04-02T19:47:19.435Z,12.10
2018-04-02T19:49:47.036Z,12.10
2018-04-02T19:52:15.390Z,11.90
2018-04-02T19:54:43.048Z,11.80
2018-04-02T19:57:10.699Z,11.70
2018-04-02T19:59:38.316Z,11.70
2018-04-02T20:02:05.942Z,11.70
2018-04-02T20:04:33.581Z,11.70
2018-04-02T20:07:01.234Z,11.70
2018-04-02T20:09:28.804Z,11.60
2018-04-02T20:11:56.457Z,11.50
2018-04-02T20:14:24.015Z,11.40
2018-04-02T20:16:51.687Z,11.30
2018-04-02T20:19:19.300Z,11.30
2018-04-02T20:21:47.699Z,11.40
2018-04-02T20:24:15.341Z,11.40
2018-04-02T20:26:43.819Z,11.40
2018-04-02T20:29:12.208Z,11.50
2018-04-02T20:31:40.608Z,11.60
2018-04-02T20:34:08.146Z,11.50
2018-04-02T20:36:36.465Z,11.50
2018-04-02T20:39:04.027Z,11.50
2018-04-02T20:41:31.583Z,11.50
2018-04-02T20:43:59.147Z,11.40
2018-04-02T20:46:26.685Z,11.40
2018-04-02T20:48:54.256Z,11.40
2018-04-02T20:51:22.044Z,11.40
2018-04-02T20:53:51.867Z,11.30
2018-04-02T20:56:19.506Z,11.30
2018-04-02T20:58:47.102Z,11.30
2018-04-02T21:01:14.731Z,11.30
2018-04-02T21:03:42.368Z,11.20
2018-04-02T21:06:09.994Z,11.10
2018-04-02T21:08:38.379Z,11.10
2018-04-02T21:11:06.744Z,11.10
2018-04-02T21:13:34.354Z,11.00
2018-04-02T21:16:02.016Z,11.10
2018-04-02T21:18:29.595Z,11.10
2018-04-02T21:20:57.206Z,11.10
2018-04-02T21:23:25.577Z,11.20
2018-04-02T21:25:53.979Z,11.30
2018-04-02T21:28:21.607Z,11.30
2018-04-02T21:30:49.274Z,11.20
2018-04-02T21:33:17.627Z,11.10
2018-04-02T21:35:45.251Z,11.10
2018-04-02T21:38:12.849Z,11.10
2018-04-02T21:40:40.480Z,11.10
2018-04-02T21:43:08.067Z,11.10
2018-04-02T21:45:35.856Z,11.10
2018-04-02T21:48:04.141Z,11.20
2018-04-02T21:50:32.544Z,11.10
2018-04-02T21:53:00.154Z,11.10
2018-04-02T21:55:27.781Z,11.00
2018-04-02T21:57:55.337Z,11.00
2018-04-02T22:00:22.873Z,11.00
2018-04-02T22:02:51.202Z,11.10
2018-04-02T22:05:18.748Z,11.00
2018-04-02T22:07:46.317Z,11.10
2018-04-02T22:10:14.490Z,11.00
2018-04-02T22:12:42.074Z,11.00
2018-04-02T22:15:09.631Z,11.00
2018-04-02T22:17:37.201Z,10.90
2018-04-02T22:20:04.740Z,10.90
2018-04-02T22:22:32.307Z,10.90
2018-04-02T22:24:59.843Z,11.00
2018-04-02T22:27:27.426Z,11.00
2018-04-02T22:29:54.975Z,11.00
2018-04-02T22:32:22.550Z,11.10
2018-04-02T22:34:50.114Z,11.10
2018-04-02T22:37:17.683Z,11.00
2018-04-02T22:39:45.230Z,10.90
2018-04-02T22:42:12.794Z,10.80
2018-04-02T22:44:40.327Z,10.90
2018-04-02T22:47:07.901Z,10.80
2018-04-02T22:49:36.213Z,10.70
2018-04-02T22:52:03.760Z,10.70
2018-04-02T22:54:31.328Z,10.60
2018-04-02T22:56:58.871Z,10.60
2018-04-02T22:59:26.446Z,10.60
2018-04-02T23:01:53.988Z,10.60
2018-04-02T23:04:21.563Z,10.60
2018-04-02T23:06:49.115Z,10.60
2018-04-02T23:09:16.682Z,10.60
2018-04-02T23:11:44.226Z,10.60
2018-04-02T23:14:11.811Z,10.60
2018-04-02T23:16:39.370Z,10.60
2018-04-02T23:19:06.991Z,10.60
2018-04-02T23:21:35.898Z,10.60
2018-04-02T23:24:03.513Z,10.60
2018-04-02T23:26:31.117Z,10.60
2018-04-02T23:28:58.748Z,10.60
2018-04-02T23:31:26.327Z,10.50
2018-04-02T23:33:53.946Z,10.50
2018-04-02T23:36:22.286Z,10.40
2018-04-02T23:38:49.872Z,10.40
2018-04-02T23:41:18.273Z,10.30
2018-04-02T23:43:45.843Z,10.30
2018-04-02T23:46:13.470Z,10.20
2018-04-02T23:48:41.058Z,10.20
2018-04-02T23:51:08.679Z,10.30
2018-04-02T23:53:36.258Z,10.30
2018-04-02T23:56:04.679Z,10.30
2018-04-02T23:58:32.282Z,10.20
